地図

経路データ

SID SEASON NUMBER BASIN SUBBASIN NAME ISO_TIME NATURE LAT LON WMO_WIND WMO_PRES WMO_AGENCY TRACK_TYPE DIST2LAND LANDFALL IFLAG USA_AGENCY USA_ATCF_ID USA_LAT USA_LON USA_RECORD USA_STATUS USA_WIND USA_PRES USA_SSHS USA_R34_NE USA_R34_SE USA_R34_SW USA_R34_NW USA_R50_NE USA_R50_SE USA_R50_SW USA_R50_NW USA_R64_NE USA_R64_SE USA_R64_SW USA_R64_NW USA_POCI USA_ROCI USA_RMW USA_EYE TOKYO_LAT TOKYO_LON TOKYO_GRADE TOKYO_WIND TOKYO_PRES TOKYO_R50_DIR TOKYO_R50_LONG TOKYO_R50_SHORT TOKYO_R30_DIR TOKYO_R30_LONG TOKYO_R30_SHORT TOKYO_LAND CMA_LAT CMA_LON CMA_CAT CMA_WIND CMA_PRES HKO_LAT HKO_LON HKO_CAT HKO_WIND HKO_PRES NEWDELHI_LAT NEWDELHI_LON NEWDELHI_GRADE NEWDELHI_WIND NEWDELHI_PRES NEWDELHI_CI NEWDELHI_DP NEWDELHI_POCI REUNION_LAT REUNION_LON REUNION_TYPE REUNION_WIND REUNION_PRES REUNION_TNUM REUNION_CI REUNION_RMW REUNION_R34_NE REUNION_R34_SE REUNION_R34_SW REUNION_R34_NW REUNION_R50_NE REUNION_R50_SE REUNION_R50_SW REUNION_R50_NW REUNION_R64_NE REUNION_R64_SE REUNION_R64_SW REUNION_R64_NW BOM_LAT BOM_LON BOM_TYPE BOM_WIND BOM_PRES BOM_TNUM BOM_CI BOM_RMW BOM_R34_NE BOM_R34_SE BOM_R34_SW BOM_R34_NW BOM_R50_NE BOM_R50_SE BOM_R50_SW BOM_R50_NW BOM_R64_NE BOM_R64_SE BOM_R64_SW BOM_R64_NW BOM_ROCI BOM_POCI BOM_EYE BOM_POS_METHOD BOM_PRES_METHOD NADI_LAT NADI_LON NADI_CAT NADI_WIND NADI_PRES WELLINGTON_LAT WELLINGTON_LON WELLINGTON_WIND WELLINGTON_PRES DS824_LAT DS824_LON DS824_STAGE DS824_WIND DS824_PRES TD9636_LAT TD9636_LON TD9636_STAGE TD9636_WIND TD9636_PRES TD9635_LAT TD9635_LON TD9635_WIND TD9635_PRES TD9635_ROCI NEUMANN_LAT NEUMANN_LON NEUMANN_CLASS NEUMANN_WIND NEUMANN_PRES MLC_LAT MLC_LON MLC_CLASS MLC_WIND MLC_PRES USA_GUST BOM_GUST BOM_GUST_PER REUNION_GUST REUNION_GUST_PER USA_SEAHGT USA_SEARAD_NE USA_SEARAD_SE USA_SEARAD_SW USA_SEARAD_NW STORM_SPEED STORM_DIR
1883070S16053 1883 8 SI MM NOT_NAMED 1883-03-11 00:00:00 TS -16.3000 53.1000 main 295 294 _________O____ -1 -16.3000 53.1000 TC 19 197
1883070S16053 1883 8 SI MM NOT_NAMED 1883-03-11 03:00:00 TS -17.1852 52.8230 main 307 307 _________P____ -1 -17.1852 52.8230 TC 19 195
1883070S16053 1883 8 SI MM NOT_NAMED 1883-03-11 06:00:00 TS -18.1000 52.6000 main 330 326 _________O____ -1 -18.1000 52.6000 TC 19 190
1883070S16053 1883 8 SI MM NOT_NAMED 1883-03-11 09:00:00 TS -19.0574 52.4826 main 341 311 _________P____ -1 -19.0574 52.4826 TC 19 183
1883070S16053 1883 8 SI MM NOT_NAMED 1883-03-11 12:00:00 TS -20.0000 52.5000 main 306 272 _________O____ -1 -20.0000 52.5000 TC 18 175
1883070S16053 1883 8 SI MM NOT_NAMED 1883-03-11 15:00:00 TS -20.8724 52.6400 main 270 244 _________P____ -1 -20.8724 52.6400 TC 18 168
1883070S16053 1883 8 SI MM NOT_NAMED 1883-03-11 18:00:00 TS -21.7000 52.9000 main 247 244 _________O____ -1 -21.7000 52.9000 TC 18 162
1883070S16053 1883 8 SI MM NOT_NAMED 1883-03-11 21:00:00 TS -22.5450 53.2199 main 254 252 _________P____ -1 -22.5450 53.2199 TC 17 158
1883070S16053 1883 8 SI MM NOT_NAMED 1883-03-12 00:00:00 TS -23.3000 53.6000 main 283 283 _________O____ -1 -23.3000 53.6000 TC 15 152
1883070S16053 1883 8 SI MM NOT_NAMED 1883-03-12 03:00:00 TS -23.8874 53.9856 main 319 319 _________P____ -1 -23.8874 53.9856 TC 13 146
1883070S16053 1883 8 SI MM NOT_NAMED 1883-03-12 06:00:00 TS -24.4000 54.4000 main 357 357 _________O____ -1 -24.4000 54.4000 TC 13 144
1883070S16053 1883 8 SI MM NOT_NAMED 1883-03-12 09:00:00 TS -24.9725 54.8500 main 410 408 _________P____ -1 -24.9725 54.8500 TC 14 143
1883070S16053 1883 8 SI MM NOT_NAMED 1883-03-12 12:00:00 TS -25.5000 55.3000 main 459 459 _________O____ -1 -25.5000 55.3000 TC 12 141
1883070S16053 1883 8 SI MM NOT_NAMED 1883-03-12 15:00:00 TS -25.9148 55.7007 main 503 503 _________P____ -1 -25.9148 55.7007 TC 11 138
1883070S16053 1883 8 SI MM NOT_NAMED 1883-03-12 18:00:00 TS -26.3000 56.1000 main 549 549 _________O____ -1 -26.3000 56.1000 TC 11 138
1883070S16053 1883 8 SI MM NOT_NAMED 1883-03-12 21:00:00 TS -26.7273 56.5281 main 599 599 _________P____ -1 -26.7273 56.5281 TC 12 138
1883070S16053 1883 8 SI MM NOT_NAMED 1883-03-13 00:00:00 TS -27.2000 57.0000 main 663 663 _________O____ -1 -27.2000 57.0000 TC 13 138
1883070S16053 1883 8 SI MM NOT_NAMED 1883-03-13 03:00:00 TS -27.7274 57.5279 main 729 729 _________P____ -1 -27.7274 57.5279 TC 15 138
1883070S16053 1883 8 SI MM NOT_NAMED 1883-03-13 06:00:00 TS -28.3000 58.1000 main 811 811 _________O____ -1 -28.3000 58.1000 TC 16 139
1883070S16053 1883 8 SI MM NOT_NAMED 1883-03-13 09:00:00 TS -28.9148 58.6925 main 893 893 _________P____ -1 -28.9148 58.6925 TC 16 139
1883070S16053 1883 8 SI MM NOT_NAMED 1883-03-13 12:00:00 TS -29.5000 59.3000 main 977 977 _________O____ -1 -29.5000 59.3000 TC 15 135
1883070S16053 1883 8 SI MM NOT_NAMED 1883-03-13 15:00:00 TS -29.9722 59.9009 main 1052 1052 _________P____ -1 -29.9722 59.9009 TC 14 131
1883070S16053 1883 8 SI MM NOT_NAMED 1883-03-13 18:00:00 TS -30.4000 60.5000 main 1117 1117 _________O____ -1 -30.4000 60.5000 TC 14 130
1883070S16053 1883 8 SI MM NOT_NAMED 1883-03-13 21:00:00 TS -30.8497 61.1006 main 1184 1184 _________P____ -1 -30.8497 61.1006 TC 14 131
1883070S16053 1883 8 SI MM NOT_NAMED 1883-03-14 00:00:00 TS -31.3000 61.7000 main 1260 1260 _________O____ -1 -31.3000 61.7000 TC 14 131
1883070S16053 1883 8 SI MM NOT_NAMED 1883-03-14 03:00:00 TS -31.7496 62.2932 main 1328 1328 _________P____ -1 -31.7496 62.2932 TC 14 131
1883070S16053 1883 8 SI MM NOT_NAMED 1883-03-14 06:00:00 TS -32.2000 62.9000 main 1405 1405 _________O____ -1 -32.2000 62.9000 TC 14 130
1883070S16053 1883 8 SI MM NOT_NAMED 1883-03-14 09:00:00 TS -32.6498 63.5430 main 1468 1468 _________P____ -1 -32.6498 63.5430 TC 14 129
1883070S16053 1883 8 SI MM NOT_NAMED 1883-03-14 12:00:00 TS -33.1000 64.2000 main 1546 1546 _________O____ -1 -33.1000 64.2000 TC 14 129
1883070S16053 1883 8 SI MM NOT_NAMED 1883-03-14 15:00:00 TS -33.5497 64.8507 main 1615 1615 _________P____ -1 -33.5497 64.8507 TC 14 130
1883070S16053 1883 8 SI MM NOT_NAMED 1883-03-14 18:00:00 TS -34.0000 65.5000 main 1670 1618 _________O____ -1 -34.0000 65.5000 TC 14 130
1883070S16053 1883 8 SI MM NOT_NAMED 1883-03-14 21:00:00 TS -34.4507 66.1486 main 1607 1555 _________P____ -1 -34.4507 66.1486 TC 14 130
1883070S16053 1883 8 SI MM NOT_NAMED 1883-03-15 00:00:00 TS -34.9000 66.8000 main 1555 _________O____ -1 -34.9000 66.8000 TC 14 130

IBTrACS Databaseについて

本データベースは、米国NOAAが公開する1842年以降の世界の熱帯低気圧のベストトラックデータアーカイブInternational Best Track Archive for Climate Stewardship (IBTrACS)を、ウェブで閲覧しやすい形式に変換したものです。

最終更新日:2021-12-06